Latest Weather Observations for Perisher Valley

IDN60901

Issued at 10:55 pm EST Wednesday 23 April 2014 (issued every 10 minutes, with the page automatically refreshed every 10 minutes)

About weather observations | Map of Canberra area stations | Latest observations for Canberra area | Other Formats
Station Details ID: 071075 Name: PERISHER VALLEY AWS Lat: -36.41 Lon: 148.41 Height: 1738.0 m
Data from the previous 72 hours. | See also: Recent months at Perisher Valley
Date/Time
EST
Tmp

°C
App
Tmp
°C
Dew
Point
°C
Rel
Hum
%
Delta-T

°C
Wind Press
QNH
hPa
Press
MSL
hPa
Rain
since
9 am
mm
Dir
 
Spd
km/h
Gust
km/h
Spd
kts
Gust
kts
23/10:30pm 7.1 3.6 5.4 89 0.8 WNW 13 33 7 18 - - 0.6
23/10:00pm 7.0 3.2 5.8 92 0.6 W 15 35 8 19 - - 0.6
23/09:30pm 6.9 3.2 6.3 96 0.3 W 15 39 8 21 - - 0.6
23/09:00pm 7.0 2.9 6.1 94 0.5 WNW 17 39 9 21 - - 0.6
23/08:30pm 6.9 3.6 6.2 95 0.4 WNW 13 37 7 20 - - 0.6
23/08:00pm 6.8 3.9 6.4 97 0.2 WNW 11 37 6 20 - - 0.6
23/07:30pm 6.8 3.4 6.1 95 0.4 WNW 13 33 7 18 - - 0.6
23/07:00pm 6.9 4.3 6.0 94 0.5 W 9 28 5 15 - - 0.6
23/06:30pm 7.0 4.3 5.6 91 0.7 NNW 9 41 5 22 - - 0.6
23/06:00pm 7.0 3.6 5.8 92 0.6 WNW 13 28 7 15 - - 0.6
23/05:30pm 7.0 4.0 5.8 92 0.6 WNW 11 26 6 14 - - 0.6
23/05:00pm 7.1 4.5 5.9 92 0.6 WNW 9 30 5 16 - - 0.6
23/04:30pm 7.1 5.0 6.0 93 0.6 N 6 15 3 8 - - 0.6
23/04:00pm 7.1 4.9 6.2 94 0.5 N 7 20 4 11 - - 0.6
23/03:30pm 7.1 4.5 6.2 94 0.5 NW 9 20 5 11 - - 0.6
23/03:00pm 7.0 4.0 5.9 93 0.5 WNW 11 28 6 15 - - 0.6
23/02:30pm 6.7 3.0 6.1 96 0.3 W 15 32 8 17 - - 0.6
23/02:00pm 7.0 2.4 6.3 95 0.4 W 20 43 11 23 - - 0.6
23/01:30pm 7.2 3.1 6.1 93 0.6 W 17 43 9 23 - - 0.6
23/01:00pm 7.3 2.9 6.4 94 0.5 W 19 41 10 22 - - 0.6
23/12:30pm 7.4 2.3 6.0 91 0.7 W 22 48 12 26 - - 0.6
23/12:00pm 8.0 4.3 6.1 88 1.0 W 15 39 8 21 - - 0.6
23/11:30am 7.5 4.2 6.3 92 0.6 W 13 41 7 22 - - 0.6
23/11:00am 6.8 2.7 6.2 96 0.3 W 17 37 9 20 - - 0.6
23/10:30am 6.8 3.8 6.1 95 0.4 WNW 11 28 6 15 - - 0.6
23/10:00am 6.6 3.9 5.7 94 0.4 W 9 26 5 14 - - 0.0
23/09:30am 6.5 3.4 5.6 94 0.4 W 11 30 6 16 - - 0.0
23/09:00am 6.1 3.4 5.7 97 0.2 WNW 9 24 5 13 - - 5.8
23/08:30am 5.9 3.7 5.2 95 0.3 NW 6 22 3 12 - - 5.6
23/08:00am 5.6 2.7 4.9 95 0.3 NW 9 22 5 12 - - 5.6
23/07:30am 5.4 2.5 4.4 93 0.5 W 9 20 5 11 - - 5.6
23/07:00am 5.6 2.3 4.4 92 0.6 W 11 28 6 15 - - 3.4
23/06:30am 5.7 3.3 4.5 92 0.6 WNW 6 15 3 8 - - 2.2
23/06:00am 5.8 2.8 4.0 88 0.9 NW 9 32 5 17 - - 1.4
23/05:30am 6.3 3.6 3.6 83 1.3 WNW 7 24 4 13 - - 0.4
23/05:00am 7.3 4.6 3.5 77 1.8 WNW 7 20 4 11 - - 0.2
23/04:30am 7.3 4.8 3.5 77 1.8 NW 6 17 3 9 - - 0.2
23/04:00am 7.0 4.3 3.6 79 1.6 N 7 20 4 11 - - 0.2
23/03:30am 7.1 4.4 3.7 79 1.6 N 7 20 4 11 - - 0.2
23/03:00am 7.2 4.7 4.0 80 1.5 NW 6 15 3 8 - - 0.2
23/02:30am 7.3 5.2 3.7 78 1.7 WNW 4 13 2 7 - - 0.0
23/02:00am 6.9 4.8 3.9 81 1.4 W 4 13 2 7 - - 0.0
23/01:30am 6.8 4.7 3.9 82 1.4 N 4 11 2 6 - - 0.0
23/01:00am 6.5 4.4 3.8 83 1.3 N 4 11 2 6 - - 0.0
23/12:30am 6.2 4.1 4.0 86 1.0 NW 4 11 2 6 - - 0.0
23/12:00am 6.5 4.0 3.8 83 1.3 NW 6 20 3 11 - - 0.0
 
Date/Time
EST
Tmp

°C
App
Tmp
°C
Dew
Point
°C
Rel
Hum
%
Delta-T

°C
Wind Press
QNH
hPa
Press
MSL
hPa
Rain
since
9 am
mm
Dir
 
Spd
km/h
Gust
km/h
Spd
kts
Gust
kts
22/11:30pm 6.4 4.2 3.6 82 1.3 NW 4 11 2 6 - - 0.0
22/11:00pm 6.3 4.1 3.5 82 1.3 NNW 4 15 2 8 - - 0.0
22/10:30pm 6.3 4.2 3.8 84 1.2 NNW 4 17 2 9 - - 0.0
22/10:00pm 6.0 3.9 3.8 86 1.0 N 4 17 2 9 - - 0.0
22/09:30pm 5.3 3.2 4.0 91 0.6 N 4 9 2 5 - - 0.0
22/09:00pm 5.1 2.9 3.6 90 0.7 N 4 7 2 4 - - 0.0
22/08:30pm 5.7 4.0 4.2 90 0.7 N 2 13 1 7 - - 0.0
22/08:00pm 5.5 3.7 3.7 88 0.8 N 2 6 1 3 - - 0.0
22/07:30pm 5.5 3.5 4.3 92 0.6 N 4 7 2 4 - - 0.0
22/07:00pm 4.4 2.5 2.6 88 0.8 NNW 2 6 1 3 - - 0.0
22/06:30pm 5.7 3.9 3.5 86 1.0 NE 2 6 1 3 - - 0.0
22/06:00pm 6.1 3.6 3.6 84 1.2 NNE 6 9 3 5 - - 0.0
22/05:30pm 6.4 3.8 3.4 81 1.4 N 6 9 3 5 - - 0.0
22/05:00pm 7.7 5.7 4.3 79 1.6 N 4 9 2 5 - - 0.0
22/04:30pm 8.2 5.6 4.2 76 1.9 NNW 7 15 4 8 - - 0.0
22/04:00pm 8.8 5.8 4.2 73 2.2 NW 9 17 5 9 - - 0.0
22/03:30pm 8.9 5.5 4.1 72 2.3 WNW 11 22 6 12 - - 0.0
22/03:00pm 8.6 5.4 3.2 69 2.6 WNW 9 17 5 9 - - 0.0
22/02:30pm 10.7 8.0 2.8 58 3.8 WNW 6 17 3 9 - - 0.0
22/02:00pm 10.2 6.2 3.0 61 3.5 NW 13 30 7 16 - - 0.0
22/01:30pm 10.0 5.3 0.9 53 4.2 WNW 15 26 8 14 - - 0.0
22/01:00pm 11.1 6.3 -2.3 39 5.8 W 13 28 7 15 - - 0.0
22/12:30pm 12.9 8.7 -4.2 30 7.2 N 9 24 5 13 - - 0.0
22/12:00pm 11.4 7.6 -3.5 35 6.3 W 7 20 4 11 - - 0.0
22/11:30am 12.4 8.4 -1.9 37 6.3 WNW 9 26 5 14 - - 0.0
22/11:00am 12.4 8.4 -2.2 36 6.4 N 9 26 5 14 - - 0.0
22/10:30am 12.6 8.8 -0.6 40 6.0 NW 9 22 5 12 - - 0.0
22/10:00am 12.3 9.0 -0.2 42 5.7 NNW 7 17 4 9 - - 0.0
22/09:30am 10.0 7.2 -3.3 39 5.5 ESE 2 7 1 4 - - 0.0
22/09:00am 7.7 5.4 -2.0 50 4.1 CALM 0 2 0 1 - - 0.0
22/08:30am 6.9 4.5 -0.3 60 3.1 ENE 2 6 1 3 - - 0.0
22/08:00am 6.5 3.7 -3.7 48 4.1 NNW 2 6 1 3 - - 0.0
22/07:30am 4.3 2.1 -1.9 64 2.5 CALM 0 4 0 2 - - 0.0
22/07:00am 3.2 0.1 -2.5 66 2.2 W 4 6 2 3 - - 0.0
22/06:30am 2.6 -0.1 -2.7 68 2.1 N 2 4 1 2 - - 0.0
22/06:00am 2.5 -0.3 -3.0 67 2.1 WSW 2 7 1 4 - - 0.0
22/05:30am 3.8 0.8 -2.2 65 2.4 W 4 6 2 3 - - 0.0
22/05:00am 5.4 1.9 -2.9 55 3.3 W 6 9 3 5 - - 0.0
22/04:30am 6.9 2.9 -5.7 40 4.8 W 7 13 4 7 - - 0.0
22/04:00am 7.4 3.4 -5.3 40 4.9 W 7 15 4 8 - - 0.0
22/03:30am 8.0 3.8 -3.8 43 4.8 W 9 15 5 8 - - 0.0
22/03:00am 8.7 2.8 -5.2 37 5.5 W 17 26 9 14 - - 0.0
22/02:30am 8.9 2.7 -4.6 38 5.4 W 19 26 10 14 - - 0.0
22/02:00am 9.1 3.0 -3.8 40 5.3 W 19 26 10 14 - - 0.0
22/01:30am 8.9 2.9 -2.7 44 4.8 W 19 28 10 15 - - 0.0
22/01:00am 9.1 2.8 -1.0 49 4.4 W 22 30 12 16 - - 0.0
22/12:30am 9.1 2.5 -0.2 52 4.1 W 24 33 13 18 - - 0.0
22/12:00am 9.0 2.2 -1.7 47 4.6 W 24 35 13 19 - - 0.0
 
Date/Time
EST
Tmp

°C
App
Tmp
°C
Dew
Point
°C
Rel
Hum
%
Delta-T

°C
Wind Press
QNH
hPa
Press
MSL
hPa
Rain
since
9 am
mm
Dir
 
Spd
km/h
Gust
km/h
Spd
kts
Gust
kts
21/11:30pm 8.9 2.0 -3.0 43 4.9 W 24 33 13 18 - - 0.0
21/11:00pm 8.5 2.4 -2.1 47 4.5 W 20 28 11 15 - - 0.0
21/10:30pm 4.3 0.9 -5.5 49 3.6 NE 4 13 2 7 - - 0.0
21/10:00pm 4.8 1.8 -5.5 47 3.8 E 2 7 1 4 - - 0.0
21/09:30pm 4.8 1.0 -5.8 46 3.9 WSW 6 13 3 7 - - 0.0
21/09:00pm 5.3 1.5 -5.4 46 4.0 WSW 6 11 3 6 - - 0.0
21/08:30pm 6.5 2.0 -6.4 39 4.8 W 9 17 5 9 - - 0.0
21/08:00pm 5.9 1.1 -5.7 43 4.4 W 11 17 6 9 - - 0.0
21/07:30pm 7.0 1.1 -6.0 39 4.9 W 17 24 9 13 - - 0.0
21/07:00pm 7.0 1.1 -6.0 39 4.9 W 17 26 9 14 - - 0.0
21/06:30pm 6.5 1.4 -5.5 42 4.6 W 13 20 7 11 - - 0.0
21/06:00pm 6.8 2.4 -5.8 40 4.8 W 9 15 5 8 - - 0.0
21/05:30pm 7.5 2.8 -5.5 39 5.0 W 11 17 6 9 - - 0.0
21/05:00pm 8.1 3.0 -5.3 38 5.2 W 13 20 7 11 - - 0.0
21/04:30pm 8.7 4.1 -4.5 39 5.3 W 11 17 6 9 - - 0.0
21/04:00pm 9.4 4.3 -4.9 36 5.7 W 13 20 7 11 - - 0.0
21/03:30pm 10.1 5.5 -4.3 36 5.9 WNW 11 19 6 10 - - 0.0
21/03:00pm 10.8 6.1 -4.8 33 6.3 W 11 20 6 11 - - 0.0
21/02:30pm 10.9 5.5 -4.7 33 6.3 WNW 15 22 8 12 - - 0.0
21/02:00pm 11.2 5.8 -4.5 33 6.4 WNW 15 26 8 14 - - 0.0
21/01:30pm 11.2 6.1 -5.3 31 6.6 W 13 26 7 14 - - 0.0
21/01:00pm 11.4 4.9 -6.4 28 7.0 WNW 20 33 11 18 - - 0.0
21/12:30pm 11.6 6.5 -5.4 30 6.9 W 13 26 7 14 - - 0.0
21/12:00pm 11.2 6.4 -5.7 30 6.7 W 11 22 6 12 - - 0.0
21/11:30am 11.3 6.9 -6.1 29 6.9 W 9 22 5 12 - - 0.0
21/11:00am 12.0 7.5 -6.4 27 7.3 W 9 19 5 10 - - 0.0
21/10:30am 12.2 8.2 -5.7 28 7.2 W 7 17 4 9 - - 0.0
21/10:00am 11.1 6.9 -7.2 27 7.0 W 7 15 4 8 - - 0.0
21/09:30am 10.5 6.3 -7.2 28 6.8 W 7 13 4 7 - - 0.0
21/09:00am 10.0 7.1 -1.4 45 5.0 E 4 9 2 5 - - 0.0
21/08:30am 5.7 3.2 -0.8 63 2.7 NE 2 4 1 2 - - 0.0
21/08:00am 2.7 0.3 -0.4 80 1.3 WSW 2 6 1 3 - - 0.0
21/07:30am -1.1 -4.0 -4.3 79 1.1 SW 2 4 1 2 - - 0.0
21/07:00am -2.9 -6.4 -6.5 76 1.1 SW 4 6 2 3 - - 0.0
21/06:30am -3.5 -6.7 -6.8 78 0.9 W 2 4 1 2 - - 0.0
21/06:00am -3.4 -7.3 -7.0 76 1.0 SW 6 9 3 5 - - 0.0
21/05:30am -3.5 -7.1 -7.4 74 1.1 WSW 4 7 2 4 - - 0.0
21/05:00am -3.7 -7.6 -6.8 79 0.9 SSW 6 9 3 5 - - 0.0
21/04:30am -4.1 -7.7 -6.9 81 0.7 SW 4 7 2 4 - - 0.0
21/04:00am -4.0 -6.7 -6.1 85 0.5 CALM 0 2 0 1 - - 0.0
21/03:30am -3.8 -7.6 -5.6 87 0.4 SW 6 7 3 4 - - 0.0
21/03:00am -3.5 -7.3 -5.5 86 0.5 SW 6 11 3 6 - - 0.0
21/02:30am -3.9 -7.6 -4.6 95 0.1 SW 6 9 3 5 - - 0.0
21/02:00am -3.7 -7.0 -4.0 98 -0.1 SW 4 7 2 4 - - 0.0
21/01:30am -4.0 -6.9 -4.3 98 -0.1 SW 2 4 1 2 - - 0.0
21/01:00am -3.9 -6.8 -4.2 98 -0.1 SW 2 4 1 2 - - 0.0
21/12:30am -4.1 -6.7 -4.6 96 0.0 CALM 0 2 0 1 - - 0.0
21/12:00am -3.9 -6.4 -4.3 97 0.0 CALM 0 0 0 0 - - 0.0
 
Date/Time
EST
Tmp

°C
App
Tmp
°C
Dew
Point
°C
Rel
Hum
%
Delta-T

°C
Wind Press
QNH
hPa
Press
MSL
hPa
Rain
since
9 am
mm
Dir
 
Spd
km/h
Gust
km/h
Spd
kts
Gust
kts
20/11:30pm -3.6 -6.9 -4.0 97 0.0 SW 4 4 2 2 - - 0.0
20/11:00pm -3.9 -6.9 -4.9 93 0.2 W 2 6 1 3 - - 0.0

Latest Capital City Observations: Canberra | Sydney | Melbourne | Brisbane | Adelaide | Perth | Hobart | Darwin

Other Formats:

Comma delimited format used in spreadsheet applications
http://www.bom.gov.au/fwo/IDN60903/IDN60903.94915.axf

JavaScript Object Notation format (JSON) in row-major order
http://www.bom.gov.au/fwo/IDN60903/IDN60903.94915.json